createdAt,value
2017-09-21T03:52:05.473Z,99.90
2017-09-21T03:54:33.590Z,99.90
2017-09-21T03:57:01.690Z,99.90
2017-09-21T03:59:29.931Z,99.90
2017-09-21T04:01:58.047Z,99.90
2017-09-21T04:04:26.181Z,99.90
2017-09-21T04:06:54.511Z,99.90
2017-09-21T04:09:22.769Z,99.20
2017-09-21T04:11:51.046Z,98.70
2017-09-21T04:14:19.561Z,98.50
2017-09-21T04:16:48.599Z,97.30
2017-09-21T04:19:16.889Z,97.30
2017-09-21T04:21:45.277Z,95.60
2017-09-21T04:24:13.539Z,94.40
2017-09-21T04:26:41.613Z,93.10
2017-09-21T04:29:09.974Z,92.00
2017-09-21T04:31:38.104Z,91.00
2017-09-21T04:34:06.263Z,85.80
2017-09-21T04:36:34.670Z,83.20
2017-09-21T04:39:02.771Z,81.50
2017-09-21T04:41:30.937Z,76.60
2017-09-21T04:43:59.938Z,67.00
2017-09-21T04:46:28.195Z,67.00
2017-09-21T04:48:57.046Z,65.50
2017-09-21T04:51:25.310Z,65.40
2017-09-21T04:53:53.574Z,65.80
2017-09-21T04:56:21.801Z,64.80
2017-09-21T04:58:50.079Z,64.90
2017-09-21T05:01:18.218Z,65.00
2017-09-21T05:03:46.494Z,66.40
2017-09-21T05:06:14.938Z,63.30
2017-09-21T05:08:43.762Z,57.10
2017-09-21T05:11:11.914Z,57.10
2017-09-21T05:13:40.878Z,54.50
2017-09-21T05:16:08.966Z,54.50
2017-09-21T05:18:37.850Z,53.50
2017-09-21T05:21:06.141Z,53.40
2017-09-21T05:23:35.014Z,53.20
2017-09-21T05:26:03.263Z,52.60
2017-09-21T05:28:31.639Z,52.70
2017-09-21T05:30:59.902Z,50.90
2017-09-21T05:33:28.071Z,50.60
2017-09-21T05:35:56.449Z,50.40
2017-09-21T05:38:24.541Z,50.20
2017-09-21T05:40:52.770Z,48.80
2017-09-21T05:43:21.762Z,48.90
2017-09-21T05:45:50.600Z,47.60
2017-09-21T05:48:18.808Z,47.60
2017-09-21T05:50:47.078Z,47.70
2017-09-21T05:53:15.190Z,45.40
2017-09-21T05:55:44.213Z,44.10
2017-09-21T05:58:12.495Z,44.00
2017-09-21T06:00:40.663Z,42.80
2017-09-21T06:03:08.769Z,43.00
2017-09-21T06:05:37.068Z,42.80
2017-09-21T06:08:05.185Z,43.50
2017-09-21T06:10:33.368Z,42.90
2017-09-21T06:13:01.653Z,44.70
2017-09-21T06:15:29.746Z,45.90
2017-09-21T06:17:57.929Z,46.70
2017-09-21T06:20:26.154Z,46.10
2017-09-21T06:22:54.359Z,46.90
2017-09-21T06:25:22.480Z,47.20
2017-09-21T06:27:51.499Z,47.00
2017-09-21T06:30:19.661Z,47.00
2017-09-21T06:32:48.743Z,47.50
2017-09-21T06:35:17.745Z,46.80
2017-09-21T06:37:46.620Z,46.30
2017-09-21T06:40:14.731Z,46.30
2017-09-21T06:42:42.957Z,47.20
2017-09-21T06:45:11.086Z,46.30
2017-09-21T06:47:39.253Z,45.90
2017-09-21T06:50:07.474Z,45.50
2017-09-21T06:52:35.595Z,41.60
2017-09-21T06:55:04.486Z,37.50
2017-09-21T06:57:33.642Z,37.40
2017-09-21T07:02:09.046Z,36.10
2017-09-21T07:04:38.138Z,35.20
2017-09-21T07:07:07.025Z,35.30
2017-09-21T07:09:35.870Z,34.80
2017-09-21T07:12:04.202Z,34.70
2017-09-21T07:14:33.066Z,34.90
2017-09-21T07:17:01.313Z,34.90
2017-09-21T07:19:29.595Z,34.50
2017-09-21T07:21:57.769Z,34.50
2017-09-21T07:24:25.930Z,34.60
2017-09-21T07:26:54.182Z,34.10
2017-09-21T07:29:23.114Z,33.70
2017-09-21T07:31:51.265Z,33.60
2017-09-21T07:34:19.498Z,33.10
2017-09-21T07:36:47.591Z,31.10
2017-09-21T07:39:16.494Z,30.00
2017-09-21T07:41:44.742Z,30.00
2017-09-21T07:44:12.854Z,31.10
2017-09-21T07:46:40.937Z,29.00
2017-09-21T07:49:09.338Z,28.40
2017-09-21T07:51:37.647Z,27.90
2017-09-21T07:54:05.834Z,27.90
2017-09-21T07:56:34.928Z,28.40
2017-09-21T07:59:03.942Z,28.70
2017-09-21T08:01:32.102Z,28.70
2017-09-21T08:04:01.129Z,28.80
2017-09-21T08:06:29.381Z,28.80
2017-09-21T08:08:58.234Z,28.60
2017-09-21T08:11:27.563Z,28.60
2017-09-21T08:13:56.422Z,29.00
2017-09-21T08:16:24.610Z,29.00
2017-09-21T08:18:52.906Z,28.60
2017-09-21T08:21:21.754Z,28.30
2017-09-21T08:23:49.862Z,28.30
2017-09-21T08:26:18.126Z,28.20
2017-09-21T08:28:46.261Z,28.60
2017-09-21T08:31:14.403Z,28.20
2017-09-21T08:33:43.497Z,28.30
2017-09-21T08:36:12.503Z,28.80
2017-09-21T08:38:41.405Z,28.20
2017-09-21T08:41:09.694Z,28.20
2017-09-21T08:43:37.813Z,28.40
2017-09-21T08:46:05.874Z,28.70
2017-09-21T08:48:34.159Z,28.50
2017-09-21T08:51:02.278Z,28.40
2017-09-21T08:53:31.194Z,29.30
2017-09-21T08:55:59.441Z,29.30
2017-09-21T08:58:28.405Z,29.30
2017-09-21T09:00:56.670Z,29.30
2017-09-21T09:03:24.975Z,29.60
2017-09-21T09:05:53.894Z,29.10
2017-09-21T09:08:22.066Z,29.10
2017-09-21T09:10:50.490Z,28.50
2017-09-21T09:13:18.597Z,28.50
2017-09-21T09:15:46.726Z,28.20
2017-09-21T09:18:14.932Z,27.80
2017-09-21T09:20:43.046Z,27.70
2017-09-21T09:23:11.961Z,40.20
2017-09-21T09:25:40.234Z,40.30
2017-09-21T09:28:08.516Z,44.80
2017-09-21T09:30:36.623Z,49.00
2017-09-21T09:33:04.894Z,51.60
2017-09-21T09:35:33.009Z,55.00
2017-09-21T09:38:01.858Z,66.90
2017-09-21T09:40:30.111Z,67.00
2017-09-21T09:42:58.229Z,71.20
2017-09-21T09:45:26.355Z,73.10
2017-09-21T09:47:54.666Z,76.00
2017-09-21T09:50:22.762Z,79.40
2017-09-21T09:52:51.594Z,91.80
2017-09-21T09:55:19.837Z,91.80
2017-09-21T09:57:48.830Z,92.50
2017-09-21T10:00:17.658Z,91.10
2017-09-21T10:02:46.147Z,91.10
2017-09-21T10:05:14.266Z,90.70
2017-09-21T10:07:42.378Z,90.20
2017-09-21T10:10:10.659Z,91.50
2017-09-21T10:12:38.853Z,91.70
2017-09-21T10:15:06.966Z,91.80
2017-09-21T10:17:35.250Z,92.80
2017-09-21T10:20:03.379Z,95.60
2017-09-21T10:22:31.854Z,97.30
2017-09-21T10:25:00.157Z,95.50
2017-09-21T10:27:28.434Z,96.90
2017-09-21T10:29:56.758Z,97.10
2017-09-21T10:32:25.726Z,91.10
2017-09-21T10:34:53.836Z,91.10
2017-09-21T10:37:21.926Z,90.10
2017-09-21T10:39:50.179Z,93.60
2017-09-21T10:42:18.301Z,93.90
2017-09-21T10:44:47.197Z,93.60
2017-09-21T10:47:15.416Z,93.60
2017-09-21T10:49:45.106Z,93.70
2017-09-21T10:52:13.265Z,93.70
2017-09-21T10:54:42.331Z,95.00
2017-09-21T10:57:10.484Z,95.00
2017-09-21T10:59:38.617Z,96.50
2017-09-21T11:02:06.906Z,96.90
2017-09-21T11:04:35.217Z,95.50
2017-09-21T11:07:03.337Z,96.30
2017-09-21T11:09:31.645Z,97.40
2017-09-21T11:12:00.538Z,98.10
2017-09-21T11:14:29.433Z,97.70
2017-09-21T11:16:58.407Z,96.80
2017-09-21T11:19:26.517Z,96.80
2017-09-21T11:21:55.359Z,94.20
2017-09-21T11:24:23.658Z,94.20
2017-09-21T11:26:51.774Z,94.50
2017-09-21T11:29:19.852Z,93.60
2017-09-21T11:31:48.678Z,93.70
2017-09-21T11:34:17.653Z,93.40
2017-09-21T11:36:47.450Z,93.60
2017-09-21T11:39:16.165Z,93.50
2017-09-21T11:41:44.966Z,94.00
2017-09-21T11:44:13.727Z,95.00
2017-09-21T11:46:43.214Z,95.50
2017-09-21T11:49:11.348Z,95.60
2017-09-21T11:51:39.686Z,95.70
2017-09-21T11:54:08.062Z,94.10
2017-09-21T11:56:36.966Z,93.50
2017-09-21T11:59:05.286Z,93.20
2017-09-21T12:01:34.958Z,93.60
2017-09-21T12:04:03.418Z,93.60
2017-09-21T12:06:31.670Z,93.70
2017-09-21T12:09:02.146Z,94.00
2017-09-21T12:11:30.674Z,94.00
2017-09-21T12:13:59.362Z,94.20
2017-09-21T12:16:27.782Z,94.30
2017-09-21T12:18:56.777Z,94.60
2017-09-21T12:21:25.071Z,94.20
2017-09-21T12:23:53.705Z,94.00
2017-09-21T12:26:26.152Z,94.40
2017-09-21T12:28:56.522Z,94.40
2017-09-21T12:31:25.182Z,95.10
2017-09-21T12:33:55.265Z,94.90
2017-09-21T12:36:26.058Z,94.80
2017-09-21T12:38:56.428Z,95.10
2017-09-21T12:41:26.744Z,95.30
2017-09-21T12:43:58.258Z,95.10
2017-09-21T12:46:28.994Z,95.00
2017-09-21T13:29:32.328Z,99.10
2017-09-21T13:32:00.480Z,99.00
2017-09-21T13:34:28.642Z,99.90
2017-09-21T13:36:57.669Z,99.90
2017-09-21T13:39:25.786Z,99.90
2017-09-21T13:41:53.907Z,99.90
2017-09-21T13:44:22.174Z,99.70
2017-09-21T13:46:51.042Z,97.70
2017-09-21T13:49:19.202Z,97.60
2017-09-21T13:51:47.461Z,97.20
2017-09-21T13:54:15.694Z,65.10
2017-09-21T13:56:43.853Z,52.80
2017-09-21T13:59:12.890Z,41.90
2017-09-21T14:01:40.979Z,41.80
2017-09-21T14:04:09.074Z,39.20
2017-09-21T14:06:37.294Z,37.50
2017-09-21T14:09:05.511Z,36.60
2017-09-21T14:11:33.934Z,35.80
2017-09-21T14:14:02.946Z,34.10
2017-09-21T14:16:31.218Z,34.00
2017-09-21T14:19:00.055Z,33.40
2017-09-21T14:21:28.325Z,33.30
2017-09-21T14:23:56.447Z,32.80
2017-09-21T14:26:25.345Z,32.40
2017-09-21T14:28:54.376Z,33.20
2017-09-21T14:31:22.473Z,33.20
2017-09-21T14:33:50.841Z,33.10
2017-09-21T14:36:19.083Z,33.10
2017-09-21T14:38:47.313Z,31.70
2017-09-21T14:41:15.599Z,32.40
2017-09-21T14:43:44.017Z,32.20
2017-09-21T14:46:13.038Z,32.00
2017-09-21T14:48:41.265Z,32.00
2017-09-21T14:51:10.220Z,31.10
2017-09-21T14:53:38.301Z,31.00
2017-09-21T14:56:06.410Z,30.60
2017-09-21T14:58:35.394Z,30.40
2017-09-21T15:01:03.485Z,30.40
2017-09-21T15:03:32.382Z,30.70
2017-09-21T15:06:01.338Z,30.40
2017-09-21T15:08:29.469Z,30.40
2017-09-21T15:10:57.578Z,30.00
2017-09-21T15:13:26.023Z,30.50
2017-09-21T15:15:54.137Z,30.10
2017-09-21T15:18:22.217Z,30.40
2017-09-21T15:20:50.506Z,30.70
2017-09-21T15:23:18.617Z,30.20
2017-09-21T15:25:46.751Z,30.60
2017-09-21T15:28:15.817Z,30.60
2017-09-21T15:30:43.921Z,31.30
2017-09-21T15:33:12.051Z,30.90
2017-09-21T15:35:40.294Z,31.10
2017-09-21T15:38:09.182Z,31.10
2017-09-21T15:40:38.406Z,31.60
2017-09-21T15:43:06.650Z,31.60
2017-09-21T15:45:35.558Z,30.50
2017-09-21T15:48:04.454Z,30.20
2017-09-21T15:50:33.433Z,30.80
2017-09-21T15:53:02.261Z,30.50
2017-09-21T15:55:30.391Z,30.50
2017-09-21T15:57:58.646Z,30.40
2017-09-21T16:00:26.964Z,30.20
2017-09-21T16:02:55.802Z,30.30
2017-09-21T16:05:24.045Z,30.30
2017-09-21T16:07:52.162Z,31.40
2017-09-21T16:10:20.258Z,30.30
2017-09-21T16:12:48.506Z,30.80
2017-09-21T16:15:16.690Z,31.00
2017-09-21T16:17:44.769Z,31.50
2017-09-21T16:20:13.002Z,31.30
2017-09-21T16:22:41.113Z,30.90
2017-09-21T16:25:09.401Z,30.10
2017-09-21T16:27:37.739Z,30.20
2017-09-21T16:30:05.838Z,30.00
2017-09-21T16:32:33.962Z,30.30
2017-09-21T16:35:02.982Z,30.60
2017-09-21T16:37:38.268Z,30.60
2017-09-21T16:40:07.224Z,30.70
2017-09-21T16:42:35.385Z,30.00
2017-09-21T16:45:03.947Z,30.30
2017-09-21T16:47:34.058Z,29.90
2017-09-21T16:50:03.023Z,30.00
2017-09-21T16:52:31.830Z,30.00
2017-09-21T16:55:00.738Z,29.90
2017-09-21T16:57:29.646Z,29.60
2017-09-21T16:59:58.505Z,29.60
2017-09-21T17:02:26.782Z,30.00
2017-09-21T17:04:54.906Z,29.80
2017-09-21T17:07:23.003Z,29.10
2017-09-21T17:09:51.233Z,29.40
2017-09-21T17:12:20.090Z,29.30
2017-09-21T17:14:48.206Z,29.30
2017-09-21T17:17:16.474Z,29.10
2017-09-21T17:19:45.298Z,28.60
2017-09-21T17:22:13.444Z,28.60
2017-09-21T17:24:42.466Z,28.90
2017-09-21T17:27:10.738Z,28.90
2017-09-21T17:29:38.961Z,28.80
2017-09-21T17:32:07.333Z,28.80
2017-09-21T17:34:35.464Z,28.80
2017-09-21T17:37:03.582Z,28.70
2017-09-21T17:39:31.849Z,28.50
2017-09-21T17:41:59.975Z,28.50
2017-09-21T17:44:30.040Z,28.50
2017-09-21T17:46:58.361Z,28.50
2017-09-21T17:49:27.266Z,28.70
2017-09-21T17:51:56.144Z,28.60
2017-09-21T17:54:25.094Z,28.90
2017-09-21T17:56:53.291Z,28.80
2017-09-21T17:59:21.844Z,28.90
2017-09-21T18:01:50.446Z,29.30
2017-09-21T18:04:18.994Z,30.60
2017-09-21T18:06:47.556Z,33.00
2017-09-21T18:09:17.311Z,37.90
2017-09-21T18:11:45.474Z,37.90
2017-09-21T18:14:13.790Z,38.50
2017-09-21T18:16:42.235Z,39.60
2017-09-21T18:19:12.127Z,40.80
2017-09-21T18:21:40.551Z,40.10
2017-09-21T18:24:10.902Z,40.50
2017-09-21T18:26:40.490Z,40.60
2017-09-21T18:29:08.692Z,40.80
2017-09-21T18:31:37.318Z,41.50
2017-09-21T18:34:06.157Z,42.10
2017-09-21T18:36:34.717Z,42.40
2017-09-21T18:39:04.639Z,41.50
2017-09-21T18:41:34.431Z,40.40
2017-09-21T18:44:02.951Z,39.90
2017-09-21T18:46:31.214Z,38.80
2017-09-21T18:49:01.253Z,36.70
2017-09-21T18:51:30.178Z,36.60
2017-09-21T18:53:59.824Z,34.40
2017-09-21T18:56:28.766Z,34.40
2017-09-21T18:58:58.343Z,33.80
2017-09-21T19:01:27.187Z,33.60
2017-09-21T19:03:57.046Z,33.80
2017-09-21T19:06:27.090Z,33.70
2017-09-21T19:08:56.059Z,33.50
2017-09-21T19:11:24.825Z,32.90
2017-09-21T19:13:53.290Z,32.80
2017-09-21T19:16:21.758Z,32.70
2017-09-21T19:18:50.594Z,33.10
2017-09-21T19:21:21.443Z,33.10
2017-09-21T19:23:50.103Z,33.30
2017-09-21T19:26:19.700Z,33.90
2017-09-21T19:28:48.150Z,33.60
2017-09-21T19:31:18.166Z,33.10
2017-09-21T19:33:46.939Z,33.00
2017-09-21T19:36:15.994Z,33.30
2017-09-21T19:38:46.043Z,32.70
2017-09-21T19:41:14.434Z,32.20
2017-09-21T19:43:44.897Z,33.10
2017-09-21T19:46:14.737Z,33.70
2017-09-21T19:48:42.990Z,33.60
2017-09-21T19:51:12.221Z,35.70
2017-09-21T19:53:41.371Z,35.70
2017-09-21T19:56:11.155Z,36.30
2017-09-21T19:58:40.277Z,36.30
2017-09-21T20:01:09.150Z,35.40
2017-09-21T20:03:37.754Z,34.20
2017-09-21T20:06:06.490Z,33.60
2017-09-21T20:08:35.338Z,35.20
2017-09-21T20:11:03.405Z,37.70
2017-09-21T20:13:32.203Z,40.90
2017-09-21T20:16:01.434Z,41.60
2017-09-21T20:18:30.342Z,38.20
2017-09-21T20:20:59.270Z,37.90
2017-09-21T20:23:29.113Z,36.30
2017-09-21T20:25:58.713Z,34.50
2017-09-21T20:28:27.082Z,34.40
2017-09-21T20:30:56.998Z,34.90
2017-09-21T20:33:27.426Z,35.60
2017-09-21T20:35:57.134Z,37.40
2017-09-21T20:38:26.316Z,41.00
2017-09-21T20:40:55.377Z,40.90
2017-09-21T20:43:23.961Z,42.00
2017-09-21T20:45:53.222Z,42.20
2017-09-21T20:48:22.887Z,41.40
2017-09-21T20:50:51.555Z,41.20
2017-09-21T20:53:21.329Z,41.10
2017-09-21T20:55:50.539Z,40.10
2017-09-21T20:58:18.895Z,40.00
2017-09-21T21:00:47.178Z,40.20
2017-09-21T21:03:15.510Z,40.10
2017-09-21T21:05:44.656Z,39.40
2017-09-21T21:08:14.085Z,39.30
2017-09-21T21:10:44.378Z,37.60
2017-09-21T21:13:12.870Z,37.60
2017-09-21T21:15:43.567Z,37.40
2017-09-21T21:18:12.610Z,37.40
2017-09-21T21:20:44.366Z,38.20
2017-09-21T21:23:12.947Z,38.20
2017-09-21T21:25:42.933Z,38.40
2017-09-21T21:28:11.666Z,38.30
2017-09-21T21:30:40.106Z,37.90
2017-09-21T21:33:09.491Z,37.80
2017-09-21T21:35:38.082Z,38.40
2017-09-21T21:38:07.071Z,37.60
2017-09-21T21:40:36.645Z,37.40
2017-09-21T21:43:05.988Z,37.30
2017-09-21T21:45:34.727Z,37.80
2017-09-21T21:48:03.590Z,37.20
2017-09-21T21:50:33.721Z,38.20
2017-09-21T21:53:01.986Z,38.20
2017-09-21T21:55:30.995Z,39.30
2017-09-21T21:57:59.967Z,39.30
2017-09-21T22:00:28.462Z,38.50
2017-09-21T22:02:56.582Z,37.30
2017-09-21T22:05:24.837Z,38.80
2017-09-21T22:07:53.837Z,43.00
2017-09-21T22:10:22.666Z,46.70
2017-09-21T22:12:51.486Z,46.70
2017-09-21T22:15:21.470Z,48.40
2017-09-21T22:17:50.017Z,48.40
2017-09-21T22:20:18.868Z,48.10
2017-09-21T22:22:47.457Z,48.90
2017-09-21T22:25:18.401Z,51.90
2017-09-21T22:27:47.113Z,51.90
2017-09-21T22:30:15.643Z,53.80
2017-09-21T22:32:43.970Z,55.30
2017-09-21T22:35:13.498Z,55.30
2017-09-21T22:37:42.578Z,53.70
2017-09-21T22:40:11.646Z,53.60
2017-09-21T22:42:40.070Z,54.20
2017-09-21T22:45:08.366Z,52.80
2017-09-21T22:47:37.186Z,53.10
2017-09-21T22:50:06.219Z,50.60
2017-09-21T22:52:35.683Z,49.10
2017-09-21T22:55:04.026Z,48.00
2017-09-21T22:57:33.370Z,48.10
2017-09-21T23:00:02.346Z,49.30
2017-09-21T23:02:31.285Z,50.90
2017-09-21T23:05:00.082Z,51.20
2017-09-21T23:07:30.780Z,51.60
2017-09-21T23:09:59.264Z,51.80
2017-09-21T23:12:28.582Z,52.20
2017-09-21T23:14:57.952Z,57.60
2017-09-21T23:17:26.590Z,57.60
2017-09-21T23:19:55.338Z,53.90
2017-09-21T23:22:38.406Z,50.90
2017-09-21T23:25:07.416Z,47.30
2017-09-21T23:27:36.061Z,46.60
2017-09-21T23:30:05.795Z,46.40
2017-09-21T23:32:34.962Z,43.90
2017-09-21T23:35:04.767Z,42.90
2017-09-21T23:37:33.930Z,42.40
2017-09-21T23:40:03.730Z,40.30
2017-09-21T23:42:32.726Z,40.30
2017-09-21T23:45:03.301Z,40.10
2017-09-21T23:47:31.874Z,40.10
2017-09-21T23:50:01.887Z,39.00
2017-09-21T23:52:31.281Z,38.50
2017-09-21T23:54:59.657Z,37.70
2017-09-21T23:57:31.878Z,37.30
